createdAt,value
2023-03-02T00:01:57.731Z,99244.84
2023-03-02T00:04:27.745Z,99240.91
2023-03-02T00:06:57.975Z,99233.01
2023-03-02T00:09:27.780Z,99229.16
2023-03-02T00:11:57.493Z,99225.96
2023-03-02T00:14:26.689Z,99224.48
2023-03-02T00:16:55.476Z,99219.59
2023-03-02T00:19:24.261Z,99222.80
2023-03-02T00:21:53.464Z,99223.63
2023-03-02T00:24:22.249Z,99219.91
2023-03-02T00:26:51.040Z,99221.92
2023-03-02T00:29:19.833Z,99212.23
2023-03-02T00:31:48.746Z,99216.23
2023-03-02T00:34:18.012Z,99211.90
2023-03-02T00:36:49.728Z,99212.66
2023-03-02T00:39:20.440Z,99209.52
2023-03-02T00:41:49.498Z,99214.41
2023-03-02T00:44:18.179Z,99211.17
2023-03-02T00:46:47.136Z,99213.02
2023-03-02T00:49:18.128Z,99212.75
2023-03-02T00:51:49.356Z,99209.38
2023-03-02T00:54:18.758Z,99201.41
2023-03-02T00:56:47.546Z,99203.17
2023-03-02T00:59:28.734Z,99205.80
2023-03-02T01:02:04.002Z,99203.98
2023-03-02T01:04:37.991Z,99198.96
2023-03-02T01:07:10.888Z,99199.39
2023-03-02T01:09:40.263Z,99196.22
2023-03-02T01:12:11.613Z,99199.45
2023-03-02T01:14:41.628Z,99194.93
2023-03-02T01:17:10.620Z,99195.55
2023-03-02T01:19:40.436Z,99198.78
2023-03-02T01:22:09.436Z,99193.73
2023-03-02T01:24:43.845Z,99191.50
2023-03-02T01:27:13.150Z,99191.42
2023-03-02T01:29:42.038Z,99189.71
2023-03-02T01:32:11.080Z,99188.18
2023-03-02T01:34:39.824Z,99182.98
2023-03-02T01:37:10.146Z,99185.94
2023-03-02T01:39:38.828Z,99187.14
2023-03-02T01:42:07.723Z,99183.52
2023-03-02T01:44:40.301Z,99180.09
2023-03-02T01:47:15.435Z,99185.05
2023-03-02T01:49:54.447Z,99182.80
2023-03-02T01:52:24.282Z,99181.67
2023-03-02T01:54:53.782Z,99183.02
2023-03-02T01:57:24.313Z,99179.54
2023-03-02T01:59:54.223Z,99184.54
2023-03-02T02:02:23.066Z,99190.67
2023-03-02T02:04:52.306Z,99190.89
2023-03-02T02:07:21.544Z,99195.16
2023-03-02T02:09:50.811Z,99199.59
2023-03-02T02:12:21.639Z,99199.61
2023-03-02T02:14:50.421Z,99198.38
2023-03-02T02:17:19.928Z,99203.04
2023-03-02T02:19:49.049Z,99199.85
2023-03-02T02:22:22.729Z,99195.98
2023-03-02T02:24:57.560Z,99192.48
2023-03-02T02:27:30.146Z,99194.30
2023-03-02T02:29:59.742Z,99195.35
2023-03-02T02:32:30.592Z,99197.36
2023-03-02T02:34:59.469Z,99200.70
2023-03-02T02:37:36.579Z,99206.81
2023-03-02T02:40:07.746Z,99206.20
2023-03-02T02:42:38.325Z,99209.86
2023-03-02T02:45:11.574Z,99214.83
2023-03-02T02:47:40.407Z,99220.92
2023-03-02T02:50:10.111Z,99217.05
2023-03-02T02:52:41.285Z,99219.34
2023-03-02T02:55:15.371Z,99223.88
2023-03-02T02:57:44.468Z,99231.67
2023-03-02T03:00:16.634Z,99231.39
2023-03-02T03:02:48.110Z,99237.54
2023-03-02T03:05:18.098Z,99244.56
2023-03-02T03:07:47.309Z,99246.70
2023-03-02T03:10:30.455Z,99250.38
2023-03-02T03:13:00.444Z,99254.97
2023-03-02T03:15:30.460Z,99254.21
2023-03-02T03:17:59.547Z,99259.26
2023-03-02T03:20:30.283Z,99261.89
2023-03-02T03:23:01.112Z,99264.46
2023-03-02T03:25:32.457Z,99267.38
2023-03-02T03:28:03.906Z,99270.16
2023-03-02T03:30:34.143Z,99272.07
2023-03-02T03:33:04.474Z,99277.61
2023-03-02T03:35:37.390Z,99280.92
2023-03-02T03:38:07.276Z,99281.81
2023-03-02T03:40:36.241Z,99282.31
2023-03-02T03:43:07.570Z,99285.41
2023-03-02T03:45:38.738Z,99283.61
2023-03-02T03:48:07.842Z,99287.25
2023-03-02T03:50:36.723Z,99289.06
2023-03-02T03:53:05.299Z,99289.45
2023-03-02T03:55:35.005Z,99288.38
2023-03-02T03:58:04.306Z,99284.89
2023-03-02T04:00:33.621Z,99284.08
2023-03-02T04:03:05.571Z,99280.23
2023-03-02T04:05:35.179Z,99282.23
2023-03-02T04:08:05.291Z,99287.83
2023-03-02T04:10:35.308Z,99287.98
2023-03-02T04:13:04.611Z,99290.88
2023-03-02T04:15:33.498Z,99291.66
2023-03-02T04:18:02.381Z,99294.75
2023-03-02T04:20:31.484Z,99299.14
2023-03-02T04:22:59.877Z,99304.49
2023-03-02T04:25:29.675Z,99307.79
2023-03-02T04:28:17.877Z,99310.77
2023-03-02T04:30:51.945Z,99308.55
2023-03-02T04:33:21.006Z,99311.98
2023-03-02T04:35:50.169Z,99308.12
2023-03-02T04:38:19.631Z,99309.90
2023-03-02T04:40:48.728Z,99312.93
2023-03-02T04:43:17.734Z,99318.98
2023-03-02T04:45:48.049Z,99318.94
2023-03-02T04:48:16.837Z,99322.52
2023-03-02T04:50:46.446Z,99328.36
2023-03-02T04:53:15.609Z,99333.52
2023-03-02T04:55:44.419Z,99326.28
2023-03-02T04:58:14.928Z,99322.29
2023-03-02T05:00:43.744Z,99316.70
2023-03-02T05:03:12.533Z,99311.94
2023-03-02T05:05:42.858Z,99306.80
2023-03-02T05:08:11.645Z,99301.66
2023-03-02T05:10:41.650Z,99303.59
2023-03-02T05:13:10.353Z,99296.84
2023-03-02T05:15:39.746Z,99294.75
2023-03-02T05:18:09.457Z,99286.60
2023-03-02T05:20:38.250Z,99282.48
2023-03-02T05:23:07.154Z,99287.55
2023-03-02T05:25:37.461Z,99286.52
2023-03-02T05:28:07.171Z,99286.23
2023-03-02T05:30:38.618Z,99289.48
2023-03-02T05:33:07.013Z,99283.88
2023-03-02T05:35:36.136Z,99284.99
2023-03-02T05:38:05.594Z,99286.07
2023-03-02T05:40:34.636Z,99294.31
2023-03-02T05:43:03.535Z,99293.68
2023-03-02T05:45:33.496Z,99296.55
2023-03-02T05:48:03.204Z,99294.16
2023-03-02T05:50:32.300Z,99292.33
2023-03-02T05:53:02.829Z,99296.23
2023-03-02T05:55:31.921Z,99297.30
2023-03-02T05:58:00.507Z,99300.63
2023-03-02T06:00:33.184Z,99301.66
2023-03-02T06:03:02.710Z,99300.63
2023-03-02T06:05:31.371Z,99305.41
2023-03-02T06:07:59.976Z,99309.35
2023-03-02T06:10:29.240Z,99318.52
2023-03-02T06:12:58.044Z,99329.43
2023-03-02T06:15:29.905Z,99339.59
2023-03-02T06:17:58.584Z,99346.39
2023-03-02T06:20:27.177Z,99353.06
2023-03-02T06:22:55.980Z,99355.00
2023-03-02T06:25:24.955Z,99367.84
2023-03-02T06:27:54.049Z,99372.39
2023-03-02T06:30:23.768Z,99378.67
2023-03-02T06:32:52.674Z,99385.77
2023-03-02T06:35:24.217Z,99393.08
2023-03-02T06:37:53.294Z,99404.67
2023-03-02T06:40:22.712Z,99408.64
2023-03-02T06:42:51.597Z,99424.66
2023-03-02T06:45:21.093Z,99438.65
2023-03-02T06:47:50.061Z,99448.34
2023-03-02T06:50:19.081Z,99469.88
2023-03-02T06:52:49.092Z,99474.16
2023-03-02T06:55:17.991Z,99494.08
2023-03-02T06:57:47.700Z,99506.26
2023-03-02T07:00:26.173Z,99519.54
2023-03-02T07:02:57.032Z,99534.63
2023-03-02T07:05:26.123Z,99549.89
2023-03-02T07:07:55.540Z,99557.99
2023-03-02T07:10:23.922Z,99575.18
2023-03-02T07:12:55.544Z,99578.66
2023-03-02T07:15:27.639Z,99584.23
2023-03-02T07:17:56.555Z,99591.50
2023-03-02T07:20:25.313Z,99599.16
2023-03-02T07:22:55.539Z,99596.20
2023-03-02T07:25:24.217Z,99597.52
2023-03-02T07:27:57.138Z,99609.77
2023-03-02T07:30:26.387Z,99607.42
2023-03-02T07:32:55.296Z,99608.44
2023-03-02T07:35:24.516Z,99637.30
2023-03-02T07:37:52.770Z,99633.48
2023-03-02T07:40:21.149Z,99645.82
2023-03-02T07:42:49.321Z,99650.36
2023-03-02T07:45:26.309Z,99665.87
2023-03-02T07:47:54.780Z,99683.42
2023-03-02T07:50:23.073Z,99713.27
2023-03-02T07:52:52.052Z,99725.73
2023-03-02T07:55:20.765Z,99733.42
2023-03-02T07:57:49.529Z,99737.98
2023-03-02T08:00:19.027Z,99737.22
2023-03-02T08:02:47.968Z,99738.44
2023-03-02T08:05:17.513Z,99738.26
2023-03-02T08:07:47.382Z,99734.63
2023-03-02T08:10:17.054Z,99737.77
2023-03-02T08:12:45.687Z,99734.77
2023-03-02T08:15:15.135Z,99727.98
2023-03-02T08:17:44.248Z,99726.91
2023-03-02T08:20:16.007Z,99720.92
2023-03-02T08:22:44.779Z,99723.52
2023-03-02T08:25:14.967Z,99726.12
2023-03-02T08:27:46.474Z,99731.91
2023-03-02T08:30:15.602Z,99745.11
2023-03-02T08:32:47.906Z,99746.20
2023-03-02T08:35:17.729Z,99747.52
2023-03-02T08:37:46.927Z,99751.63
2023-03-02T08:40:16.021Z,99754.38
2023-03-02T08:42:45.339Z,99757.56
2023-03-02T08:45:14.010Z,99763.44
2023-03-02T08:47:43.100Z,99757.55
2023-03-02T08:50:12.297Z,99754.71
2023-03-02T08:52:41.086Z,99754.72
2023-03-02T08:55:10.501Z,99772.55
2023-03-02T08:57:41.722Z,99755.17
2023-03-02T09:00:14.883Z,99759.34
2023-03-02T09:02:44.226Z,99762.39
2023-03-02T09:05:12.614Z,99764.11
2023-03-02T09:07:41.297Z,99755.52
2023-03-02T09:10:10.693Z,99753.74
2023-03-02T09:12:40.923Z,99747.13
2023-03-02T09:15:09.808Z,99742.54
2023-03-02T09:17:41.664Z,99742.65
2023-03-02T09:20:11.070Z,99744.84
2023-03-02T09:22:39.963Z,99744.58
2023-03-02T09:25:09.579Z,99743.51
2023-03-02T09:27:39.292Z,99750.94
2023-03-02T09:30:09.984Z,99760.23
2023-03-02T09:32:38.896Z,99766.83
2023-03-02T09:35:08.602Z,99754.23
2023-03-02T09:37:39.116Z,99744.56
2023-03-02T09:40:26.749Z,99741.94
2023-03-02T09:43:15.214Z,99737.36
2023-03-02T09:45:47.492Z,99745.50
2023-03-02T09:48:23.742Z,99741.22
2023-03-02T09:51:00.109Z,99746.25
2023-03-02T09:53:52.651Z,99743.89
2023-03-02T09:56:21.349Z,99737.19
2023-03-02T09:58:56.280Z,99742.52
2023-03-02T10:02:01.821Z,99748.52
2023-03-02T10:04:31.739Z,99743.61
2023-03-02T10:07:13.429Z,99737.00
2023-03-02T10:09:41.630Z,99735.18
2023-03-02T10:12:10.020Z,99730.02
2023-03-02T10:14:50.138Z,99724.13
2023-03-02T10:17:26.631Z,99722.42
2023-03-02T10:20:00.914Z,99720.98
2023-03-02T10:22:37.280Z,99720.75
2023-03-02T10:25:14.979Z,99720.75
2023-03-02T10:27:44.168Z,99721.69
2023-03-02T10:30:33.377Z,99726.14
2023-03-02T10:33:16.013Z,99724.41
2023-03-02T10:35:48.848Z,99712.73
2023-03-02T10:38:18.757Z,99715.88
2023-03-02T10:40:53.637Z,99710.05
2023-03-02T10:43:43.355Z,99712.17
2023-03-02T10:46:12.770Z,99718.46
2023-03-02T10:48:49.844Z,99719.00
2023-03-02T10:51:34.618Z,99727.86
2023-03-02T10:54:13.356Z,99720.24
2023-03-02T10:56:42.519Z,99714.65
2023-03-02T10:59:31.378Z,99723.89
2023-03-02T11:02:04.463Z,99709.65
2023-03-02T11:04:33.445Z,99714.52
2023-03-02T11:07:28.988Z,99711.20
2023-03-02T11:10:06.808Z,99721.98
2023-03-02T11:12:36.389Z,99720.64
2023-03-02T11:15:15.781Z,99721.66
2023-03-02T11:17:45.115Z,99724.20
2023-03-02T11:20:15.243Z,99716.80
2023-03-02T11:22:44.766Z,99718.25
2023-03-02T11:25:18.549Z,99723.05
2023-03-02T11:27:48.869Z,99718.51
2023-03-02T11:30:18.905Z,99711.84
2023-03-02T11:32:56.380Z,99714.17
2023-03-02T11:35:28.186Z,99707.52
2023-03-02T11:37:58.498Z,99698.20
2023-03-02T11:40:27.865Z,99694.18
2023-03-02T11:42:57.263Z,99697.08
2023-03-02T11:45:27.617Z,99695.63
2023-03-02T11:48:03.311Z,99687.84
2023-03-02T11:50:37.672Z,99687.70
2023-03-02T11:53:12.647Z,99691.81
2023-03-02T11:55:44.452Z,99688.64
2023-03-02T11:58:16.823Z,99686.15
2023-03-02T12:00:45.710Z,99687.57
2023-03-02T12:03:18.087Z,99686.42
2023-03-02T12:05:48.815Z,99689.90
2023-03-02T12:08:19.247Z,99689.85
2023-03-02T12:11:02.127Z,99690.63
2023-03-02T12:13:35.254Z,99698.43
2023-03-02T12:16:04.986Z,99702.28
2023-03-02T12:18:50.236Z,99699.45
2023-03-02T12:21:19.744Z,99698.46
2023-03-02T12:23:51.403Z,99695.63
2023-03-02T12:26:20.699Z,99697.52
2023-03-02T12:28:57.752Z,99705.19
2023-03-02T12:31:26.651Z,99702.40
2023-03-02T12:33:56.384Z,99706.95
2023-03-02T12:36:33.165Z,99714.13
2023-03-02T12:39:05.123Z,99714.70
2023-03-02T12:41:45.070Z,99717.85
2023-03-02T12:44:13.921Z,99720.33
2023-03-02T12:46:45.513Z,99723.75
2023-03-02T12:49:20.761Z,99717.95
2023-03-02T12:51:49.671Z,99712.95
2023-03-02T12:54:22.521Z,99716.52
2023-03-02T12:57:01.879Z,99715.88
2023-03-02T12:59:30.542Z,99716.23
2023-03-02T13:02:12.201Z,99712.10
2023-03-02T13:04:41.743Z,99708.16
2023-03-02T13:07:17.591Z,99700.55
2023-03-02T13:09:56.503Z,99701.98
2023-03-02T13:12:27.066Z,99703.44
2023-03-02T13:14:56.704Z,99695.23
2023-03-02T13:17:27.074Z,99687.44
2023-03-02T13:20:01.186Z,99685.04
2023-03-02T13:22:30.835Z,99679.99
2023-03-02T13:25:05.738Z,99678.23
2023-03-02T13:27:35.257Z,99680.99
2023-03-02T13:30:24.080Z,99677.59
2023-03-02T13:33:01.084Z,99676.36
2023-03-02T13:35:33.442Z,99671.27
2023-03-02T13:38:03.485Z,99666.48
2023-03-02T13:40:37.878Z,99660.15
2023-03-02T13:43:20.383Z,99663.48
2023-03-02T13:45:53.992Z,99661.36
2023-03-02T13:49:07.481Z,99655.89
2023-03-02T13:51:41.536Z,99653.70
2023-03-02T13:54:15.441Z,99655.61
2023-03-02T13:56:46.893Z,99655.50
2023-03-02T13:59:18.965Z,99657.88
2023-03-02T14:01:48.043Z,99664.19
2023-03-02T14:04:18.258Z,99663.47
2023-03-02T14:06:47.979Z,99666.98
2023-03-02T14:09:17.181Z,99661.35
2023-03-02T14:11:54.183Z,99660.23
2023-03-02T14:14:24.191Z,99667.52
2023-03-02T14:16:52.863Z,99666.30
2023-03-02T14:19:23.488Z,99669.63
2023-03-02T14:21:52.377Z,99671.54
2023-03-02T14:24:21.372Z,99675.73
2023-03-02T14:26:50.571Z,99673.67
2023-03-02T14:29:21.819Z,99673.11
2023-03-02T14:31:51.264Z,99673.06
2023-03-02T14:34:20.048Z,99674.52
2023-03-02T14:36:49.758Z,99677.05
2023-03-02T14:39:21.375Z,99675.45
2023-03-02T14:41:54.160Z,99675.49
2023-03-02T14:44:26.009Z,99677.91
2023-03-02T14:46:54.730Z,99677.34
2023-03-02T14:49:23.702Z,99677.59
2023-03-02T14:52:02.590Z,99680.31
2023-03-02T14:54:34.892Z,99676.58
2023-03-02T14:57:09.515Z,99671.13
2023-03-02T14:59:38.404Z,99673.58
2023-03-02T15:02:22.672Z,99673.55
2023-03-02T15:05:12.637Z,99676.97
2023-03-02T15:07:44.498Z,99674.73
2023-03-02T15:10:16.801Z,99676.79
2023-03-02T15:12:45.865Z,99676.98
2023-03-02T15:15:17.171Z,99674.97
2023-03-02T15:17:46.207Z,99676.24
2023-03-02T15:20:16.850Z,99674.15
2023-03-02T15:22:47.369Z,99677.83
2023-03-02T15:25:17.605Z,99679.19
2023-03-02T15:27:47.297Z,99681.81
2023-03-02T15:30:18.019Z,99683.40
2023-03-02T15:32:48.391Z,99682.42
2023-03-02T15:35:17.545Z,99684.81
2023-03-02T15:37:49.320Z,99680.47
2023-03-02T15:40:18.400Z,99679.25
2023-03-02T15:42:46.979Z,99680.15
2023-03-02T15:45:16.894Z,99687.79
2023-03-02T15:47:45.481Z,99685.42
2023-03-02T15:50:13.980Z,99685.91
2023-03-02T15:52:44.078Z,99682.71
2023-03-02T15:55:15.730Z,99681.15
2023-03-02T15:57:45.136Z,99681.25
2023-03-02T16:00:14.536Z,99683.59
2023-03-02T16:02:43.287Z,99682.91
2023-03-02T16:05:17.412Z,99681.67
2023-03-02T16:07:48.683Z,99680.45
2023-03-02T16:10:18.725Z,99679.86
2023-03-02T16:12:47.286Z,99683.15
2023-03-02T16:15:15.881Z,99681.70
2023-03-02T16:17:48.651Z,99684.89
2023-03-02T16:20:17.473Z,99688.77
2023-03-02T16:22:45.983Z,99688.48
2023-03-02T16:25:14.704Z,99689.81
2023-03-02T16:27:47.594Z,99686.73
2023-03-02T16:30:20.290Z,99690.98
2023-03-02T16:32:51.029Z,99686.94
2023-03-02T16:35:19.597Z,99690.73
2023-03-02T16:37:48.107Z,99689.98
2023-03-02T16:40:17.375Z,99685.27
2023-03-02T16:42:46.784Z,99690.33
2023-03-02T16:45:15.762Z,99686.93
2023-03-02T16:47:45.078Z,99685.14
2023-03-02T16:50:13.957Z,99683.11
2023-03-02T16:52:42.854Z,99679.79
2023-03-02T16:55:13.782Z,99679.29
2023-03-02T16:57:43.493Z,99674.34
2023-03-02T17:00:13.029Z,99670.65
2023-03-02T17:02:43.634Z,99664.79
2023-03-02T17:05:12.315Z,99658.88
2023-03-02T17:07:41.406Z,99654.41
2023-03-02T17:10:12.554Z,99654.60
2023-03-02T17:12:42.368Z,99654.27
2023-03-02T17:15:13.538Z,99649.61
2023-03-02T17:17:43.008Z,99644.86
2023-03-02T17:20:13.016Z,99639.94
2023-03-02T17:22:41.668Z,99632.91
2023-03-02T17:25:12.140Z,99626.66
2023-03-02T17:27:41.946Z,99618.64
2023-03-02T17:30:13.496Z,99614.95
2023-03-02T17:32:42.387Z,99619.44
2023-03-02T17:35:12.511Z,99611.05
2023-03-02T17:37:42.129Z,99605.46
2023-03-02T17:40:14.395Z,99604.55
2023-03-02T17:42:43.586Z,99598.11
2023-03-02T17:45:18.361Z,99600.44
2023-03-02T17:47:48.121Z,99588.95
2023-03-02T17:50:16.725Z,99586.48
2023-03-02T17:52:46.617Z,99585.19
2023-03-02T17:55:16.128Z,99580.60
2023-03-02T17:57:45.122Z,99578.16
2023-03-02T18:00:15.340Z,99577.04
2023-03-02T18:02:43.915Z,99572.85
2023-03-02T18:05:13.417Z,99568.15
2023-03-02T18:07:42.619Z,99565.79
2023-03-02T18:10:13.865Z,99563.77
2023-03-02T18:12:42.978Z,99562.52
2023-03-02T18:15:12.192Z,99559.68
2023-03-02T18:17:40.849Z,99562.65
2023-03-02T18:20:10.448Z,99561.34
2023-03-02T18:22:42.041Z,99557.58
2023-03-02T18:25:10.799Z,99554.88
2023-03-02T18:27:40.232Z,99548.86
2023-03-02T18:30:09.627Z,99544.44
2023-03-02T18:32:38.691Z,99542.56
2023-03-02T18:35:07.784Z,99539.53
2023-03-02T18:37:37.932Z,99534.09
2023-03-02T18:40:07.303Z,99526.77
2023-03-02T18:42:36.819Z,99517.42
2023-03-02T18:45:06.593Z,99516.28
2023-03-02T18:47:37.046Z,99508.36
2023-03-02T18:50:07.060Z,99504.61
2023-03-02T18:52:36.769Z,99503.95
2023-03-02T18:55:05.867Z,99500.77
2023-03-02T18:57:40.265Z,99492.37
2023-03-02T19:00:10.543Z,99496.97
2023-03-02T19:02:39.499Z,99492.84
2023-03-02T19:05:08.715Z,99498.73
2023-03-02T19:07:37.801Z,99497.89
2023-03-02T19:10:08.018Z,99500.52
2023-03-02T19:12:41.514Z,99496.52
2023-03-02T19:15:11.027Z,99492.73
2023-03-02T19:17:40.628Z,99491.30
2023-03-02T19:20:18.945Z,99488.39
2023-03-02T19:22:48.240Z,99482.61
2023-03-02T19:25:17.092Z,99482.30
2023-03-02T19:27:47.260Z,99478.95
2023-03-02T19:30:20.958Z,99472.10
2023-03-02T19:32:50.086Z,99468.95
2023-03-02T19:35:19.235Z,99464.72
2023-03-02T19:37:48.176Z,99468.43
2023-03-02T19:40:22.551Z,99462.70
2023-03-02T19:42:51.756Z,99455.79
2023-03-02T19:45:22.238Z,99451.19
2023-03-02T19:47:51.377Z,99444.07
2023-03-02T19:50:40.025Z,99441.81
2023-03-02T19:53:10.448Z,99435.41
2023-03-02T19:55:43.027Z,99429.52
2023-03-02T19:58:17.959Z,99425.52
2023-03-02T20:00:47.424Z,99421.10
2023-03-02T20:03:17.386Z,99418.60
2023-03-02T20:05:47.107Z,99414.71
2023-03-02T20:08:17.213Z,99419.42
2023-03-02T20:10:51.424Z,99413.48
2023-03-02T20:13:24.914Z,99410.00
2023-03-02T20:15:55.958Z,99402.25
2023-03-02T20:18:24.953Z,99402.33
2023-03-02T20:20:53.723Z,99398.61
2023-03-02T20:23:23.653Z,99390.50
2023-03-02T20:25:53.980Z,99384.64
2023-03-02T20:28:23.594Z,99382.78
2023-03-02T20:30:53.880Z,99379.45
2023-03-02T20:33:24.561Z,99375.27
2023-03-02T20:35:55.014Z,99376.40
2023-03-02T20:38:29.513Z,99369.58
2023-03-02T20:41:00.494Z,99367.69
2023-03-02T20:43:29.423Z,99358.15
2023-03-02T20:45:59.066Z,99352.64
2023-03-02T20:48:28.235Z,99349.44
2023-03-02T20:50:58.670Z,99344.42
2023-03-02T20:53:27.848Z,99339.77
2023-03-02T20:55:56.946Z,99332.77
2023-03-02T20:58:25.545Z,99325.35
2023-03-02T21:00:55.990Z,99319.34
2023-03-02T21:03:25.248Z,99312.32
2023-03-02T21:05:54.344Z,99309.79
2023-03-02T21:08:23.956Z,99304.38
2023-03-02T21:10:54.404Z,99304.62
2023-03-02T21:13:24.494Z,99302.64
2023-03-02T21:15:53.497Z,99301.58
2023-03-02T21:18:25.039Z,99299.81
2023-03-02T21:20:54.042Z,99294.63
2023-03-02T21:23:22.843Z,99289.79
2023-03-02T21:25:51.614Z,99293.16
2023-03-02T21:28:20.603Z,99291.72
2023-03-02T21:30:50.955Z,99291.14
2023-03-02T21:33:20.401Z,99289.29
2023-03-02T21:35:49.120Z,99284.65
2023-03-02T21:38:18.932Z,99281.67
2023-03-02T21:40:47.719Z,99281.91
2023-03-02T21:43:16.611Z,99278.52
2023-03-02T21:45:45.494Z,99277.63
2023-03-02T21:48:14.715Z,99281.23
2023-03-02T21:50:43.791Z,99277.30
2023-03-02T21:53:12.587Z,99274.05
2023-03-02T21:55:42.519Z,99273.03
2023-03-02T21:58:10.996Z,99267.99
2023-03-02T22:00:41.301Z,99265.14
2023-03-02T22:03:10.089Z,99262.05
2023-03-02T22:05:39.501Z,99262.01
2023-03-02T22:08:08.753Z,99259.52
2023-03-02T22:10:49.659Z,99250.92
2023-03-02T22:13:26.346Z,99248.77
2023-03-02T22:16:03.422Z,99250.38
2023-03-02T22:18:35.190Z,99240.73
2023-03-02T22:21:07.746Z,99242.73
2023-03-02T22:23:36.740Z,99237.48
2023-03-02T22:26:09.235Z,99231.19
2023-03-02T22:28:41.290Z,99231.95
2023-03-02T22:31:13.284Z,99224.65
2023-03-02T22:33:44.521Z,99224.19
2023-03-02T22:36:18.713Z,99222.56
2023-03-02T22:38:47.820Z,99220.69
2023-03-02T22:41:18.948Z,99213.48
2023-03-02T22:43:49.779Z,99208.92
2023-03-02T22:46:22.108Z,99201.36
2023-03-02T22:48:51.069Z,99199.33
2023-03-02T22:51:20.168Z,99200.71
2023-03-02T22:53:50.668Z,99199.09
2023-03-02T22:56:21.080Z,99189.77
2023-03-02T22:58:50.523Z,99183.81
2023-03-02T23:01:26.186Z,99187.98
2023-03-02T23:03:55.547Z,99186.42
2023-03-02T23:06:33.238Z,99177.07
2023-03-02T23:09:02.861Z,99177.52
2023-03-02T23:11:32.360Z,99177.67
2023-03-02T23:14:01.452Z,99180.65
2023-03-02T23:16:33.311Z,99186.58
2023-03-02T23:19:02.010Z,99187.38
2023-03-02T23:21:35.800Z,99181.81
2023-03-02T23:24:05.128Z,99177.59
2023-03-02T23:26:34.502Z,99181.07
2023-03-02T23:29:23.070Z,99172.14
2023-03-02T23:31:55.243Z,99169.69
2023-03-02T23:34:24.741Z,99167.11
2023-03-02T23:36:55.058Z,99166.50
2023-03-02T23:39:24.346Z,99163.12
2023-03-02T23:41:53.406Z,99161.27
2023-03-02T23:44:22.232Z,99160.39
2023-03-02T23:46:52.255Z,99154.35
2023-03-02T23:49:21.365Z,99148.11
2023-03-02T23:51:50.434Z,99149.58
2023-03-02T23:54:19.531Z,99143.67
2023-03-02T23:56:49.340Z,99140.70
2023-03-02T23:59:19.776Z,99137.30
